createdAt,value
2017-11-07T00:11:01.418Z,6.85
2017-11-07T00:13:51.052Z,7.03
2017-11-07T00:16:49.012Z,6.75
2017-11-07T00:19:46.677Z,6.45
2017-11-07T00:22:49.387Z,6.57
2017-11-07T00:25:46.206Z,7.60
2017-11-07T00:34:54.000Z,7.68
2017-11-07T00:37:43.052Z,7.17
2017-11-07T00:40:39.963Z,7.20
2017-11-07T00:43:37.139Z,7.32
2017-11-07T00:46:34.268Z,7.60
2017-11-07T00:49:31.203Z,7.15
2017-11-07T00:52:29.160Z,6.82
2017-11-07T00:55:26.311Z,7.15
2017-11-07T00:57:52.074Z,7.70
2017-11-07T01:17:28.211Z,7.75
2017-11-07T01:19:53.989Z,8.20
2017-11-07T01:22:43.134Z,8.60
2017-11-07T01:41:54.084Z,7.95
2017-11-07T01:44:42.874Z,7.90
2017-11-07T01:47:40.670Z,7.28
2017-11-07T01:50:38.480Z,7.65
2017-11-07T01:53:36.084Z,9.05
2017-11-07T01:56:33.183Z,7.45
2017-11-07T01:59:30.967Z,7.65
2017-11-07T02:02:27.984Z,8.48
2017-11-07T02:21:39.275Z,9.50
2017-11-07T02:24:36.374Z,7.47
2017-11-07T02:27:02.176Z,9.10
2017-11-07T02:46:37.519Z,7.78
2017-11-07T02:49:03.314Z,8.52
2017-11-07T02:51:53.054Z,7.90
2017-11-07T02:54:50.067Z,7.68
2017-11-07T02:57:47.149Z,8.45
2017-11-07T03:10:44.074Z,7.90
2017-11-07T03:13:33.768Z,9.25
2017-11-07T03:16:30.903Z,9.00
2017-11-07T03:19:28.973Z,8.95
2017-11-07T03:32:13.599Z,8.65
2017-11-07T03:35:03.331Z,8.85
2017-11-07T03:54:15.769Z,10.38
2017-11-07T03:57:04.742Z,9.53
2017-11-07T04:16:16.952Z,11.00
2017-11-07T04:19:06.140Z,10.73
2017-11-07T04:22:03.164Z,9.75
2017-11-07T04:25:00.508Z,9.88
2017-11-07T04:27:57.734Z,10.00
2017-11-07T04:30:54.891Z,9.25
2017-11-07T04:33:51.992Z,10.77
2017-11-07T04:36:49.194Z,10.57
2017-11-07T04:39:14.981Z,9.80
2017-11-07T04:42:04.587Z,10.43
2017-11-07T04:45:01.726Z,10.90
2017-11-07T04:47:58.943Z,11.43
2017-11-07T04:50:56.209Z,12.80
2017-11-07T04:53:53.452Z,11.45
2017-11-07T05:13:01.072Z,11.23
2017-11-07T05:15:59.087Z,12.50
2017-11-07T05:18:57.039Z,10.60
2017-11-07T05:21:53.859Z,12.27
2017-11-07T05:24:51.938Z,11.98
2017-11-07T05:27:17.706Z,13.57
2017-11-07T05:30:07.207Z,13.00
2017-11-07T05:33:05.150Z,11.27
2017-11-07T05:48:56.403Z,13.15
2017-11-07T05:51:45.560Z,11.80
2017-11-07T05:54:42.847Z,12.73
2017-11-07T05:57:40.496Z,13.18
2017-11-07T06:00:37.536Z,13.30
2017-11-07T06:03:34.410Z,13.32
2017-11-07T06:22:44.475Z,12.73
2017-11-07T06:25:41.442Z,14.45
2017-11-07T06:28:38.598Z,13.93
2017-11-07T06:31:35.520Z,15.50
2017-11-07T06:34:33.507Z,15.38
2017-11-07T06:53:44.480Z,15.10
2017-11-07T06:56:41.630Z,15.27
2017-11-07T06:59:07.400Z,16.77
2017-11-07T07:01:56.353Z,18.37
2017-11-07T07:04:53.795Z,15.48
2017-11-07T07:20:44.208Z,17.48
2017-11-07T07:23:33.279Z,15.07
2017-11-07T07:26:31.265Z,19.35
2017-11-07T07:42:22.458Z,19.08
2017-11-07T07:45:11.436Z,19.63
2017-11-07T08:04:23.660Z,17.85
2017-11-07T08:07:12.751Z,19.37
2017-11-07T08:10:09.885Z,20.12
2017-11-07T08:13:06.700Z,21.80
2017-11-07T08:16:03.817Z,19.10
2017-11-07T08:19:01.600Z,22.37
2017-11-07T08:21:58.623Z,20.60
2017-11-07T08:27:45.679Z,20.00
2017-11-07T08:47:22.485Z,21.10
2017-11-07T09:06:34.146Z,20.65
2017-11-07T09:09:31.169Z,20.70
2017-11-07T09:11:56.963Z,21.12
2017-11-07T09:14:46.631Z,22.90
2017-11-07T09:17:44.533Z,22.48
2017-11-07T09:20:41.760Z,21.30
2017-11-07T09:33:28.592Z,22.75
2017-11-07T09:53:04.491Z,22.23
2017-11-07T09:55:30.286Z,21.90
2017-11-07T10:15:04.855Z,21.42
2017-11-07T10:17:30.644Z,23.15
2017-11-07T10:20:20.376Z,24.27
2017-11-07T10:23:18.387Z,23.10
2017-11-07T10:39:08.475Z,23.35
2017-11-07T10:41:57.455Z,21.97
2017-11-07T10:44:54.797Z,20.42
2017-11-07T10:47:51.939Z,19.90
2017-11-07T10:50:48.954Z,21.17
2017-11-07T10:53:45.908Z,20.15
2017-11-07T10:56:42.979Z,20.92
2017-11-07T10:59:40.483Z,19.87
2017-11-07T11:02:06.283Z,21.30
2017-11-07T11:04:55.607Z,20.20
2017-11-07T11:07:53.418Z,21.42
2017-11-07T11:10:50.585Z,20.88
2017-11-07T11:13:48.369Z,20.75
2017-11-07T11:16:45.175Z,20.65
2017-11-07T11:19:41.903Z,21.23
2017-11-07T11:22:38.949Z,21.00
2017-11-07T11:25:04.736Z,20.50
2017-11-07T11:27:53.791Z,19.57
2017-11-07T11:30:50.532Z,20.40
2017-11-07T11:33:47.331Z,21.42
2017-11-07T11:46:43.741Z,18.75
2017-11-07T11:49:33.427Z,20.30
2017-11-07T11:52:31.332Z,21.10
2017-11-07T11:55:29.249Z,20.02
2017-11-07T12:08:12.434Z,18.23
2017-11-07T12:11:02.032Z,19.77
2017-11-07T12:13:59.950Z,19.35
2017-11-07T12:16:57.942Z,20.20
2017-11-07T12:29:44.727Z,19.62
2017-11-07T12:32:34.348Z,20.27
2017-11-07T12:35:31.304Z,19.12
2017-11-07T12:38:28.170Z,19.45
2017-11-07T12:51:24.565Z,19.10
2017-11-07T12:54:14.094Z,19.65
2017-11-07T12:57:11.023Z,20.05
2017-11-07T13:13:02.447Z,21.45
2017-11-07T13:15:51.720Z,21.17
2017-11-07T13:18:48.847Z,19.67
2017-11-07T13:21:45.903Z,19.50
2017-11-07T13:34:31.127Z,19.58
2017-11-07T13:37:20.903Z,21.15
2017-11-07T13:40:18.030Z,19.05
2017-11-07T13:43:15.924Z,19.92
2017-11-07T13:56:13.240Z,18.73
2017-11-07T13:59:02.860Z,18.65
2017-11-07T14:18:16.039Z,18.50
2017-11-07T14:21:05.989Z,20.20
2017-11-07T14:24:03.612Z,19.70
2017-11-07T14:27:00.902Z,18.80
2017-11-07T14:29:58.419Z,18.52
2017-11-07T14:32:55.863Z,18.70
2017-11-07T14:35:53.710Z,20.55
2017-11-07T14:41:41.341Z,18.83
2017-11-07T15:01:15.394Z,19.90
2017-11-07T15:20:23.483Z,20.23
2017-11-07T15:23:21.437Z,20.85
2017-11-07T15:25:47.194Z,22.73
2017-11-07T15:28:37.238Z,21.27
2017-11-07T15:31:34.894Z,22.27
2017-11-07T15:47:25.975Z,23.83
2017-11-07T15:50:15.525Z,22.20
2017-11-07T15:53:13.419Z,21.30
2017-11-07T16:09:04.586Z,20.67
2017-11-07T16:11:53.462Z,21.13
2017-11-07T16:14:50.580Z,21.90
2017-11-07T16:17:48.556Z,21.23
2017-11-07T16:20:45.696Z,21.92
2017-11-07T16:23:42.732Z,22.23
2017-11-07T16:32:51.051Z,23.58
2017-11-07T16:35:40.397Z,37.40
2017-11-07T16:54:52.165Z,22.20
2017-11-07T16:57:41.214Z,21.50
2017-11-07T17:17:07.292Z,23.85
2017-11-07T17:19:56.345Z,21.23
2017-11-07T17:22:54.201Z,21.40
2017-11-07T17:25:51.450Z,20.33
2017-11-07T17:38:35.469Z,18.98
2017-11-07T17:41:25.128Z,18.83
2017-11-07T17:44:22.195Z,21.05
2017-11-07T18:03:33.028Z,25.17
2017-11-07T18:22:44.979Z,22.37
2017-11-07T18:25:34.783Z,20.67
2017-11-07T18:28:32.615Z,18.17
2017-11-07T18:31:29.715Z,19.85
2017-11-07T18:34:26.531Z,16.90
2017-11-07T18:44:16.457Z,19.77
2017-11-07T19:03:52.030Z,22.20
2017-11-07T19:06:17.807Z,20.80
2017-11-07T19:25:54.716Z,18.98
2017-11-07T19:48:20.871Z,17.23
2017-11-07T19:50:46.620Z,16.52
2017-11-07T20:10:35.060Z,17.83
2017-11-07T20:29:52.118Z,18.58
2017-11-07T20:32:49.992Z,19.35
2017-11-07T20:52:07.374Z,17.77
2017-11-07T21:11:23.114Z,21.50
2017-11-07T21:30:33.560Z,20.37
2017-11-07T21:52:59.655Z,16.48
2017-11-07T22:12:09.534Z,18.40
2017-11-07T22:15:06.515Z,18.60
2017-11-07T22:34:17.751Z,24.58
2017-11-07T22:50:08.871Z,26.75
2017-11-07T23:09:44.346Z,25.70
2017-11-07T23:12:10.079Z,26.02
2017-11-07T23:14:59.635Z,27.60
2017-11-07T23:17:57.399Z,25.98
2017-11-07T23:20:54.327Z,27.73
2017-11-07T23:23:52.099Z,28.48
2017-11-07T23:33:42.263Z,29.37
2017-11-07T23:36:32.602Z,27.00
2017-11-07T23:55:45.647Z,29.75
2017-11-07T23:58:36.929Z,29.50
